Capitol Logistics 5092

Operating for GRZ



PHNL
Daniel K Inouye International Airport
Honolulu, Hawaii
PANC
Ted Stevens Anchorage International Airport
Anchorage, Alaska

Activity Log

Date Flight Route Aircraft Duration
No Flights Yet

Route Details

Aircraft Information
Group: Trans-Pacific Ops
Types: B744,B763,MD11
Route Data
Demand: L
Distance: 2419nm
Duration: 5h 25m
Recm'd Route: MKK4 APACK 3000N/15600W 3500N/15600W 4000N/15600W 4500N/15500W 5000N/15400W 5500N/15300W ODK BAITT NEELL6
Origin Wx: PHNL 252253Z 04011KT 10SM FEW025 SCT037 SCT150 27/17 A3001 RMK AO2 SLP161 T02670167 $
Dest. Wx: PANC 252253Z 17004KT 5SM R07R/6000VP6000FT -SN BR BKN022 BKN036 M01/M03 A3007 RMK AO2 SLP184 P0000 T10061033
Notes: 1X PER WEEK

Financial History
Total Freight: 0lbs
Average Load: 0lbs/flt
Fuel Used: 0lbs
Avg. Fuel Used: 0lbs/flt
Fuel Expense: $0
Avg. Fuel Expense: $0
Avg. Fuel Cost: $0/lbs
Total Gross Income: $0
Pilot Pay: $0
Total Expenses: $0
Total Revenue: $0
Average Revenue: $0